createdAt,value
2019-05-11T00:00:34.027Z,3.90
2019-05-11T00:03:02.425Z,3.33
2019-05-11T00:05:30.858Z,2.90
2019-05-11T00:07:59.267Z,3.10
2019-05-11T00:10:27.694Z,4.10
2019-05-11T00:12:56.097Z,3.40
2019-05-11T00:15:24.530Z,3.63
2019-05-11T00:17:52.951Z,3.53
2019-05-11T00:20:21.405Z,3.80
2019-05-11T00:22:49.811Z,3.63
2019-05-11T00:25:18.217Z,4.90
2019-05-11T00:27:46.650Z,4.23
2019-05-11T00:30:17.053Z,3.93
2019-05-11T00:32:45.487Z,3.90
2019-05-11T00:35:13.896Z,4.27
2019-05-11T00:37:42.327Z,3.80
2019-05-11T00:40:14.689Z,4.00
2019-05-11T00:42:41.553Z,3.90
2019-05-11T00:45:10.229Z,3.97
2019-05-11T00:47:38.658Z,3.70
2019-05-11T00:50:08.498Z,3.60
2019-05-11T00:52:36.938Z,3.87
2019-05-11T00:55:06.575Z,3.63
2019-05-11T00:57:35.070Z,4.13
2019-05-11T01:00:08.305Z,4.20
2019-05-11T01:02:43.356Z,4.03
2019-05-11T01:05:11.955Z,3.70
2019-05-11T01:07:40.330Z,4.07
2019-05-11T01:10:23.227Z,3.50
2019-05-11T01:12:38.966Z,3.80
2019-05-11T01:15:07.630Z,3.80
2019-05-11T01:17:36.057Z,3.90
2019-05-11T01:20:06.402Z,3.53
2019-05-11T01:22:34.832Z,4.37
2019-05-11T01:25:03.472Z,4.30
2019-05-11T01:27:32.889Z,4.30
2019-05-11T01:30:01.305Z,4.27
2019-05-11T01:32:29.750Z,3.70
2019-05-11T01:34:58.153Z,4.30
2019-05-11T01:37:26.549Z,3.80
2019-05-11T01:39:54.978Z,3.70
2019-05-11T01:42:23.387Z,3.60
2019-05-11T01:44:51.810Z,3.97
2019-05-11T01:47:20.216Z,3.80
2019-05-11T01:49:48.648Z,3.90
2019-05-11T01:52:17.052Z,4.03
2019-05-11T01:54:45.481Z,3.90
2019-05-11T01:57:13.883Z,3.83
2019-05-11T01:59:42.583Z,4.00
2019-05-11T02:02:10.993Z,3.77
2019-05-11T02:04:39.414Z,4.40
2019-05-11T02:07:07.893Z,4.53
2019-05-11T02:09:36.323Z,4.83
2019-05-11T02:12:04.732Z,4.60
2019-05-11T02:14:33.171Z,5.40
2019-05-11T02:17:01.581Z,4.80
2019-05-11T02:19:30.017Z,4.73
2019-05-11T02:21:58.419Z,4.40
2019-05-11T02:24:26.868Z,4.80
2019-05-11T02:26:55.275Z,4.30
2019-05-11T02:29:23.687Z,4.50
2019-05-11T02:31:52.123Z,4.47
2019-05-11T02:34:20.518Z,4.60
2019-05-11T02:36:48.950Z,4.90
2019-05-11T02:39:17.361Z,4.57
2019-05-11T02:41:45.791Z,4.87
2019-05-11T02:44:14.194Z,5.00
2019-05-11T02:46:42.622Z,4.80
2019-05-11T02:49:11.038Z,5.30
2019-05-11T02:51:39.740Z,5.23
2019-05-11T02:54:09.211Z,4.93
2019-05-11T02:56:37.641Z,4.83
2019-05-11T02:59:06.041Z,5.33
2019-05-11T03:01:34.468Z,5.23
2019-05-11T03:04:02.876Z,5.30
2019-05-11T03:06:31.304Z,5.07
2019-05-11T03:08:59.708Z,5.87
2019-05-11T03:11:28.144Z,5.53
2019-05-11T03:13:56.614Z,6.10
2019-05-11T03:16:25.043Z,5.80
2019-05-11T03:18:53.467Z,5.67
2019-05-11T03:21:21.887Z,6.23
2019-05-11T03:23:50.291Z,5.80
2019-05-11T03:26:18.721Z,5.30
2019-05-11T03:28:47.124Z,6.20
2019-05-11T03:31:15.557Z,6.20
2019-05-11T03:33:43.984Z,5.80
2019-05-11T03:36:12.401Z,5.47
2019-05-11T03:38:40.811Z,5.50
2019-05-11T03:41:09.212Z,5.40
2019-05-11T03:43:37.644Z,5.90
2019-05-11T03:46:06.065Z,5.23
2019-05-11T03:48:34.477Z,5.80
2019-05-11T03:51:02.878Z,5.90
2019-05-11T03:53:31.319Z,6.30
2019-05-11T03:55:59.719Z,6.23
2019-05-11T03:58:28.142Z,6.20
2019-05-11T04:00:56.640Z,5.60
2019-05-11T04:03:25.055Z,6.23
2019-05-11T04:05:53.454Z,6.53
2019-05-11T04:08:21.881Z,5.87
2019-05-11T04:10:50.295Z,6.10
2019-05-11T04:13:18.715Z,6.80
2019-05-11T04:15:47.165Z,6.73
2019-05-11T04:18:15.629Z,5.60
2019-05-11T04:20:44.038Z,6.43
2019-05-11T04:23:12.477Z,6.40
2019-05-11T04:25:40.882Z,6.30
2019-05-11T04:28:09.323Z,6.07
2019-05-11T04:30:37.721Z,6.50
2019-05-11T04:33:06.153Z,6.27
2019-05-11T04:35:34.633Z,6.47
2019-05-11T04:38:03.891Z,6.07
2019-05-11T04:40:32.289Z,5.50
2019-05-11T04:43:00.708Z,5.93
2019-05-11T04:45:29.154Z,5.60
2019-05-11T04:47:57.548Z,5.60
2019-05-11T04:50:25.986Z,5.10
2019-05-11T04:52:54.399Z,5.40
2019-05-11T04:55:22.838Z,5.43
2019-05-11T04:57:51.234Z,5.63
2019-05-11T05:00:19.665Z,6.07
2019-05-11T05:02:48.066Z,5.90
2019-05-11T05:05:16.499Z,6.07
2019-05-11T05:07:49.017Z,5.03
2019-05-11T05:10:19.943Z,5.70
2019-05-11T05:12:50.721Z,5.53
2019-05-11T05:15:15.555Z,5.57
2019-05-11T05:17:43.958Z,5.63
2019-05-11T05:20:12.757Z,5.67
2019-05-11T05:22:41.159Z,5.50
2019-05-11T05:25:09.592Z,5.40
2019-05-11T05:27:38.071Z,5.00
2019-05-11T05:30:07.301Z,5.57
2019-05-11T05:32:35.951Z,5.00
2019-05-11T05:35:05.619Z,5.60
2019-05-11T05:37:34.024Z,5.07
2019-05-11T05:40:02.522Z,4.80
2019-05-11T05:42:30.925Z,4.60
2019-05-11T05:44:59.354Z,4.83
2019-05-11T05:47:27.762Z,5.03
2019-05-11T05:49:56.226Z,4.90
2019-05-11T05:52:24.634Z,4.60
2019-05-11T05:54:53.039Z,4.70
2019-05-11T05:57:21.473Z,4.70
2019-05-11T05:59:49.877Z,4.17
2019-05-11T06:02:18.318Z,4.43
2019-05-11T06:04:46.720Z,4.40
2019-05-11T06:07:15.161Z,4.10
2019-05-11T06:09:43.563Z,4.87
2019-05-11T06:12:11.997Z,4.40
2019-05-11T06:14:40.392Z,4.37
2019-05-11T06:17:08.829Z,3.80
2019-05-11T06:19:37.233Z,4.37
2019-05-11T06:22:05.666Z,4.33
2019-05-11T06:24:34.073Z,3.60
2019-05-11T06:27:02.512Z,3.60
2019-05-11T06:29:30.918Z,3.80
2019-05-11T06:31:59.341Z,3.60
2019-05-11T06:34:27.746Z,3.50
2019-05-11T06:36:56.169Z,3.73
2019-05-11T06:39:24.577Z,3.90
2019-05-11T06:41:53.017Z,3.37
2019-05-11T06:44:21.407Z,3.60
2019-05-11T06:46:49.827Z,3.43
2019-05-11T06:49:18.235Z,3.70
2019-05-11T06:51:46.665Z,3.97
2019-05-11T06:54:15.070Z,3.60
2019-05-11T06:56:43.516Z,3.77
2019-05-11T06:59:11.998Z,3.60
2019-05-11T07:01:40.402Z,3.27
2019-05-11T07:04:08.829Z,3.70
2019-05-11T07:06:37.239Z,3.87
2019-05-11T07:09:07.474Z,3.63
2019-05-11T07:11:35.959Z,3.57
2019-05-11T07:14:19.079Z,3.70
2019-05-11T07:16:34.536Z,3.40
2019-05-11T07:19:02.953Z,3.70
2019-05-11T07:21:31.361Z,3.27
2019-05-11T07:23:59.825Z,3.80
2019-05-11T07:26:28.212Z,3.20
2019-05-11T07:28:56.650Z,3.20
2019-05-11T07:31:25.065Z,3.00
2019-05-11T07:33:53.497Z,3.63
2019-05-11T07:36:21.902Z,2.63
2019-05-11T07:38:50.339Z,3.53
2019-05-11T07:41:18.815Z,3.03
2019-05-11T07:43:48.448Z,3.30
2019-05-11T07:46:18.201Z,3.20
2019-05-11T07:48:47.965Z,3.30
2019-05-11T07:51:18.270Z,3.17
2019-05-11T07:53:48.617Z,2.63
2019-05-11T07:56:18.727Z,2.90
2019-05-11T07:58:48.070Z,2.90
2019-05-11T08:01:18.847Z,2.67
2019-05-11T08:03:48.327Z,3.03
2019-05-11T08:06:18.266Z,2.70
2019-05-11T08:08:49.024Z,2.80
2019-05-11T08:11:18.258Z,3.00
2019-05-11T08:13:48.089Z,2.60
2019-05-11T08:16:18.500Z,2.80
2019-05-11T08:18:48.097Z,2.97
2019-05-11T08:21:17.854Z,3.53
2019-05-11T08:23:48.377Z,2.83
2019-05-11T08:26:18.813Z,2.40
2019-05-11T08:28:48.584Z,2.37
2019-05-11T08:31:18.739Z,3.03
2019-05-11T08:33:48.002Z,2.73
2019-05-11T08:36:18.419Z,2.70
2019-05-11T08:38:48.282Z,2.70
2019-05-11T08:41:18.464Z,3.10
2019-05-11T08:43:48.069Z,2.70
2019-05-11T08:46:18.539Z,2.80
2019-05-11T08:48:47.913Z,2.83
2019-05-11T08:51:18.624Z,2.70
2019-05-11T08:53:48.079Z,2.73
2019-05-11T08:56:18.390Z,3.13
2019-05-11T08:58:49.037Z,3.17
2019-05-11T09:01:18.426Z,3.27
2019-05-11T09:03:47.797Z,3.03
2019-05-11T09:06:17.940Z,3.20
2019-05-11T09:08:49.119Z,3.40
2019-05-11T09:11:18.837Z,2.70
2019-05-11T09:13:48.834Z,2.90
2019-05-11T09:16:19.101Z,2.90
2019-05-11T09:18:47.962Z,3.10
2019-05-11T09:21:18.806Z,2.67
2019-05-11T09:23:48.580Z,3.30
2019-05-11T09:26:18.108Z,3.30
2019-05-11T09:28:47.602Z,4.33
2019-05-11T09:31:18.648Z,3.20
2019-05-11T09:33:48.054Z,2.90
2019-05-11T09:36:18.014Z,2.90
2019-05-11T09:38:48.951Z,3.37
2019-05-11T09:41:18.018Z,3.00
2019-05-11T09:43:48.290Z,2.90
2019-05-11T09:46:18.911Z,2.97
2019-05-11T09:48:48.362Z,3.37
2019-05-11T09:51:18.443Z,3.73
2019-05-11T09:53:48.331Z,3.07
2019-05-11T09:56:18.366Z,3.27
2019-05-11T09:58:47.924Z,3.00
2019-05-11T10:01:18.225Z,3.10
2019-05-11T10:03:48.161Z,3.10
2019-05-11T10:06:18.928Z,3.37
2019-05-11T10:08:48.754Z,3.33
2019-05-11T10:11:18.922Z,3.60
2019-05-11T10:13:47.865Z,3.20
2019-05-11T10:16:17.941Z,3.40
2019-05-11T10:18:48.915Z,3.30
2019-05-11T10:21:18.745Z,3.10
2019-05-11T10:23:48.980Z,3.53
2019-05-11T10:26:18.776Z,3.93
2019-05-11T10:28:48.123Z,4.33
2019-05-11T10:31:18.062Z,3.60
2019-05-11T10:33:48.976Z,3.30
2019-05-11T10:36:18.816Z,3.20
2019-05-11T10:38:48.690Z,3.10
2019-05-11T10:41:18.076Z,3.60
2019-05-11T10:43:48.868Z,3.53
2019-05-11T10:46:23.063Z,3.30
2019-05-11T10:48:48.334Z,3.20
2019-05-11T10:51:18.444Z,3.10
2019-05-11T10:53:51.369Z,3.10
2019-05-11T10:56:17.859Z,2.70
2019-05-11T10:58:48.283Z,3.67
2019-05-11T11:01:18.242Z,3.80
2019-05-11T11:03:48.364Z,3.00
2019-05-11T11:06:18.848Z,3.33
2019-05-11T11:08:48.729Z,2.83
2019-05-11T11:11:18.473Z,3.20
2019-05-11T11:13:48.068Z,3.50
2019-05-11T11:16:34.662Z,3.27
2019-05-11T11:18:48.579Z,3.20
2019-05-11T11:21:22.077Z,3.83
2019-05-11T11:23:48.030Z,2.97
2019-05-11T11:26:18.409Z,3.30
2019-05-11T11:28:47.806Z,4.23
2019-05-11T11:31:18.524Z,3.10
2019-05-11T11:33:48.902Z,2.90
2019-05-11T11:36:17.973Z,3.30
2019-05-11T11:38:47.766Z,3.60
2019-05-11T11:41:18.501Z,3.77
2019-05-11T11:43:48.348Z,3.40
2019-05-11T11:46:18.809Z,3.50
2019-05-11T11:48:48.902Z,3.93
2019-05-11T11:51:18.701Z,3.40
2019-05-11T11:53:47.931Z,3.47
2019-05-11T11:56:18.848Z,3.33
2019-05-11T11:58:48.728Z,3.50
2019-05-11T12:01:18.870Z,3.20
2019-05-11T12:03:48.741Z,3.60
2019-05-11T12:06:18.218Z,4.13
2019-05-11T12:08:49.368Z,3.93
2019-05-11T12:11:18.656Z,3.90
2019-05-11T12:13:47.623Z,3.30
2019-05-11T12:16:18.025Z,3.40
2019-05-11T12:18:48.555Z,3.33
2019-05-11T12:21:18.575Z,3.67
2019-05-11T12:23:48.585Z,3.53
2019-05-11T12:26:17.726Z,3.90
2019-05-11T12:28:48.771Z,3.73
2019-05-11T12:31:18.416Z,3.20
2019-05-11T12:33:48.314Z,3.77
2019-05-11T12:36:18.842Z,3.60
2019-05-11T12:38:48.937Z,3.47
2019-05-11T12:41:18.966Z,3.20
2019-05-11T12:43:48.850Z,3.40
2019-05-11T12:46:18.896Z,3.80
2019-05-11T12:48:48.561Z,3.20
2019-05-11T12:51:18.611Z,2.73
2019-05-11T12:53:47.743Z,2.50
2019-05-11T12:56:18.761Z,2.33
2019-05-11T12:58:48.945Z,2.87
2019-05-11T13:01:18.744Z,2.77
2019-05-11T13:03:48.999Z,2.53
2019-05-11T13:06:19.054Z,2.33
2019-05-11T13:08:48.080Z,2.23
2019-05-11T13:11:18.633Z,2.30
2019-05-11T13:13:48.396Z,2.53
2019-05-11T13:16:18.383Z,2.50
2019-05-11T13:18:48.854Z,2.10
2019-05-11T13:21:18.305Z,3.00
2019-05-11T13:23:48.960Z,2.60
2019-05-11T13:26:17.998Z,2.20
2019-05-11T13:28:48.419Z,2.33
2019-05-11T13:31:18.586Z,2.50
2019-05-11T13:33:47.995Z,2.10
2019-05-11T13:36:18.583Z,2.23
2019-05-11T13:38:48.239Z,2.40
2019-05-11T13:41:18.755Z,2.10
2019-05-11T13:43:48.659Z,1.80
2019-05-11T13:46:18.011Z,1.77
2019-05-11T13:48:47.665Z,2.40
2019-05-11T13:51:18.285Z,2.00
2019-05-11T13:53:48.245Z,2.10
2019-05-11T13:56:18.365Z,2.20
2019-05-11T13:58:48.728Z,2.13
2019-05-11T14:01:18.507Z,2.37
2019-05-11T14:03:48.360Z,3.00
2019-05-11T14:06:18.458Z,1.63
2019-05-11T14:08:48.162Z,2.00
2019-05-11T14:11:18.171Z,1.93
2019-05-11T14:13:47.966Z,1.80
2019-05-11T14:16:18.663Z,1.90
2019-05-11T14:18:48.837Z,1.97
2019-05-11T14:21:18.581Z,1.80
2019-05-11T14:23:48.428Z,2.07
2019-05-11T14:26:19.147Z,1.80
2019-05-11T14:28:48.122Z,1.80
2019-05-11T14:31:18.966Z,1.70
2019-05-11T14:33:48.869Z,2.00
2019-05-11T14:36:18.308Z,1.60
2019-05-11T14:38:48.679Z,2.60
2019-05-11T14:41:18.173Z,1.80
2019-05-11T14:43:48.970Z,1.90
2019-05-11T14:46:18.089Z,1.90
2019-05-11T14:48:48.144Z,2.20
2019-05-11T14:51:17.959Z,1.77
2019-05-11T14:53:48.208Z,1.77
2019-05-11T14:56:18.904Z,1.90
2019-05-11T14:58:49.007Z,1.90
2019-05-11T15:01:18.369Z,1.50
2019-05-11T15:03:48.600Z,1.80
2019-05-11T15:06:18.912Z,1.63
2019-05-11T15:08:47.984Z,1.70
2019-05-11T15:11:18.874Z,1.43
2019-05-11T15:13:48.727Z,1.60
2019-05-11T15:16:18.645Z,1.83
2019-05-11T15:18:48.566Z,1.70
2019-05-11T15:21:18.954Z,1.80
2019-05-11T15:23:47.738Z,1.93
2019-05-11T15:26:18.477Z,1.60
2019-05-11T15:28:48.704Z,1.97
2019-05-11T15:31:21.934Z,1.70
2019-05-11T15:33:48.896Z,2.00
2019-05-11T15:36:19.040Z,1.60
2019-05-11T15:38:48.128Z,1.40
2019-05-11T15:41:17.718Z,1.70
2019-05-11T15:43:47.939Z,1.93
2019-05-11T15:46:19.372Z,1.57
2019-05-11T15:48:56.608Z,1.47
2019-05-11T15:51:18.738Z,1.67
2019-05-11T15:53:47.650Z,1.93
2019-05-11T15:56:18.991Z,2.00
2019-05-11T15:58:48.563Z,1.87
2019-05-11T16:01:18.561Z,1.63
2019-05-11T16:03:49.707Z,1.97
2019-05-11T16:06:18.510Z,1.53
2019-05-11T16:08:47.318Z,1.53
2019-05-11T16:11:18.013Z,1.90
2019-05-11T16:13:48.229Z,1.60
2019-05-11T16:16:16.074Z,1.60
2019-05-11T16:18:44.475Z,1.50
2019-05-11T16:21:12.906Z,1.70
2019-05-11T16:23:41.322Z,1.93
2019-05-11T16:26:09.742Z,1.70
2019-05-11T16:28:38.442Z,1.70
2019-05-11T16:31:09.076Z,1.70
2019-05-11T16:33:37.086Z,1.80
2019-05-11T16:36:05.580Z,1.87
2019-05-11T16:38:33.993Z,1.80
2019-05-11T16:41:02.421Z,1.60
2019-05-11T16:43:30.829Z,1.80
2019-05-11T16:45:59.255Z,1.80
2019-05-11T16:48:27.819Z,2.00
2019-05-11T16:50:57.977Z,1.67
2019-05-11T16:53:28.422Z,1.80
2019-05-11T16:55:57.695Z,1.70
2019-05-11T16:58:27.874Z,1.70
2019-05-11T17:00:58.227Z,1.73
2019-05-11T17:03:27.876Z,1.70
2019-05-11T17:05:58.669Z,1.60
2019-05-11T17:08:27.692Z,1.60
2019-05-11T17:10:59.592Z,1.43
2019-05-11T17:13:28.135Z,1.50
2019-05-11T17:15:58.345Z,1.60
2019-05-11T17:18:28.266Z,1.60
2019-05-11T17:20:58.417Z,1.50
2019-05-11T17:23:31.006Z,1.40
2019-05-11T17:25:58.018Z,1.70
2019-05-11T17:28:26.641Z,1.63
2019-05-11T17:30:55.053Z,1.70
2019-05-11T17:33:23.484Z,2.00
2019-05-11T17:35:51.892Z,1.60
2019-05-11T17:38:20.320Z,1.90
2019-05-11T17:40:48.730Z,1.53
2019-05-11T17:43:18.159Z,1.67
2019-05-11T17:45:47.994Z,1.80
2019-05-11T17:48:17.823Z,2.20
2019-05-11T17:50:46.404Z,1.70
2019-05-11T17:53:14.835Z,2.13
2019-05-11T17:55:43.238Z,2.47
2019-05-11T17:58:11.670Z,2.50
2019-05-11T18:00:40.096Z,2.03
2019-05-11T18:03:11.437Z,2.30
2019-05-11T18:05:38.716Z,2.20
2019-05-11T18:08:08.688Z,1.97
2019-05-11T18:10:38.433Z,2.93
2019-05-11T18:13:07.112Z,2.73
2019-05-11T18:15:37.867Z,2.20
2019-05-11T18:18:05.819Z,2.60
2019-05-11T18:20:34.234Z,2.57
2019-05-11T18:23:02.638Z,2.87
2019-05-11T18:25:31.137Z,2.70
2019-05-11T18:27:59.538Z,2.27
2019-05-11T18:30:29.315Z,3.37
2019-05-11T18:32:59.492Z,2.30
2019-05-11T18:35:28.083Z,2.43
2019-05-11T18:37:56.493Z,2.47
2019-05-11T18:40:24.924Z,2.70
2019-05-11T18:42:53.322Z,2.33
2019-05-11T18:45:21.758Z,2.60
2019-05-11T18:47:50.162Z,2.33
2019-05-11T18:50:30.143Z,2.57
2019-05-11T18:52:49.354Z,2.50
2019-05-11T18:55:18.982Z,2.60
2019-05-11T18:57:49.223Z,2.47
2019-05-11T19:00:18.506Z,2.40
2019-05-11T19:02:49.310Z,2.50
2019-05-11T19:05:18.031Z,2.80
2019-05-11T19:07:48.161Z,2.77
2019-05-11T19:10:16.959Z,2.80
2019-05-11T19:12:45.361Z,2.70
2019-05-11T19:15:13.853Z,3.27
2019-05-11T19:17:42.335Z,3.40
2019-05-11T19:20:10.993Z,3.10
2019-05-11T19:22:39.489Z,3.13
2019-05-11T19:25:09.044Z,2.60
2019-05-11T19:27:37.832Z,2.77
2019-05-11T19:30:08.199Z,3.27
2019-05-11T19:32:38.292Z,2.80
2019-05-11T19:35:08.838Z,3.60
2019-05-11T19:37:38.920Z,3.60
2019-05-11T19:40:09.164Z,3.50
2019-05-11T19:42:54.055Z,3.53
2019-05-11T19:45:23.083Z,4.10
2019-05-11T19:47:51.518Z,3.57
2019-05-11T19:50:19.990Z,3.60
2019-05-11T19:52:48.420Z,3.50
2019-05-11T19:55:17.946Z,3.60
2019-05-11T19:57:48.200Z,3.90
2019-05-11T20:00:18.674Z,3.67
2019-05-11T20:02:47.196Z,3.97
2019-05-11T20:05:18.171Z,4.00
2019-05-11T20:07:48.307Z,3.60
2019-05-11T20:10:18.572Z,3.70
2019-05-11T20:12:48.094Z,3.97
2019-05-11T20:15:18.453Z,3.60
2019-05-11T20:17:48.755Z,3.97
2019-05-11T20:20:18.308Z,3.50
2019-05-11T20:22:48.224Z,4.40
2019-05-11T20:25:18.696Z,4.20
2019-05-11T20:27:48.378Z,3.87
2019-05-11T20:30:18.302Z,4.37
2019-05-11T20:32:48.529Z,4.10
2019-05-11T20:35:17.499Z,3.93
2019-05-11T20:37:45.901Z,4.90
2019-05-11T20:40:14.471Z,4.60
2019-05-11T20:42:42.869Z,4.40
2019-05-11T20:45:11.368Z,4.63
2019-05-11T20:47:39.767Z,4.50
2019-05-11T20:50:08.385Z,4.20
2019-05-11T20:52:38.950Z,4.00
2019-05-11T20:55:08.956Z,4.60
2019-05-11T20:57:39.285Z,4.20
2019-05-11T21:00:10.794Z,4.97
2019-05-11T21:02:39.194Z,4.93
2019-05-11T21:05:09.000Z,4.70
2019-05-11T21:07:38.800Z,4.70
2019-05-11T21:10:08.771Z,4.23
2019-05-11T21:12:38.573Z,4.80
2019-05-11T21:15:09.197Z,4.30
2019-05-11T21:17:37.600Z,4.37
2019-05-11T21:20:09.476Z,4.80
2019-05-11T21:22:40.449Z,4.50
2019-05-11T21:25:09.223Z,4.87
2019-05-11T21:27:38.400Z,4.70
2019-05-11T21:30:09.718Z,5.00
2019-05-11T21:32:39.281Z,4.20
2019-05-11T21:35:09.062Z,5.10
2019-05-11T21:37:38.759Z,4.33
2019-05-11T21:40:08.541Z,4.40
2019-05-11T21:42:38.995Z,5.23
2019-05-11T21:45:09.453Z,4.97
2019-05-11T21:47:39.107Z,4.90
2019-05-11T21:50:09.057Z,6.00
2019-05-11T21:52:38.591Z,5.57
2019-05-11T21:55:09.327Z,5.20
2019-05-11T21:57:37.970Z,4.13
2019-05-11T22:00:08.766Z,4.20
2019-05-11T22:02:38.541Z,4.00
2019-05-11T22:05:08.354Z,3.40
2019-05-11T22:07:38.928Z,3.93
2019-05-11T22:10:08.984Z,3.40
2019-05-11T22:12:38.802Z,3.73
2019-05-11T22:15:10.837Z,3.63
2019-05-11T22:17:39.921Z,3.30
2019-05-11T22:20:09.244Z,3.23
2019-05-11T22:22:39.111Z,3.30
2019-05-11T22:25:08.731Z,2.50
2019-05-11T22:27:38.733Z,3.00
2019-05-11T22:30:08.463Z,2.97
2019-05-11T22:32:38.455Z,2.70
2019-05-11T22:35:08.460Z,2.87
2019-05-11T22:37:38.595Z,2.53
2019-05-11T22:40:08.687Z,3.10
2019-05-11T22:42:37.296Z,2.80
2019-05-11T22:45:08.596Z,2.70
2019-05-11T22:47:39.400Z,2.40
2019-05-11T22:50:08.139Z,2.10
2019-05-11T22:52:39.774Z,3.10
2019-05-11T22:55:11.092Z,2.63
2019-05-11T22:57:38.096Z,2.83
2019-05-11T23:00:10.428Z,2.90
2019-05-11T23:02:39.129Z,3.30
2019-05-11T23:05:08.480Z,3.10
2019-05-11T23:07:41.221Z,2.70
2019-05-11T23:10:09.236Z,2.50
2019-05-11T23:12:38.242Z,2.67
2019-05-11T23:15:13.300Z,2.50
2019-05-11T23:17:42.039Z,2.40
2019-05-11T23:20:11.009Z,3.03
2019-05-11T23:22:56.754Z,2.50
2019-05-11T23:25:18.988Z,2.77
2019-05-11T23:27:48.525Z,2.60
2019-05-11T23:30:19.775Z,2.30
2019-05-11T23:32:48.877Z,2.63
2019-05-11T23:35:18.795Z,2.50
2019-05-11T23:37:49.649Z,2.47
2019-05-11T23:40:19.006Z,2.60
2019-05-11T23:42:49.097Z,2.67
2019-05-11T23:45:18.927Z,2.30
2019-05-11T23:47:48.716Z,2.17
2019-05-11T23:50:19.339Z,2.03
2019-05-11T23:52:50.162Z,2.00
2019-05-11T23:55:18.991Z,2.30
2019-05-11T23:57:48.690Z,2.30
